NCAR-RAP Real-Time Weather Data

Output produced by METARs form (01 December 2020  18:17 UTC)
found at http://weather.rap.ucar.edu/surface/
 
KGUY 011653Z AUTO 36011KT 10SM CLR 09/M07 A2987 RMK AO2 SLP108 T00941072
KGUY 011553Z AUTO 05003KT 10SM CLR 06/M06 A2984 RMK AO2 SLP103 T00611061
KGUY 011453Z AUTO 34004KT 10SM CLR 01/M08 A2987 RMK AO2 SLP120 T00111078 50001
KGUY 011353Z AUTO 30007KT 10SM CLR M03/M09 A2989 RMK AO2 SLP131 T10331089
KGUY 011253Z AUTO 30004KT 10SM CLR M03/M09 A2988 RMK AO2 SLP125 T10281089
KGUY 011153Z AUTO 30006KT 10SM CLR M03/M08 A2987 RMK AO2 SLP117 T10281083 10017 21039 55010
KGUY 011053Z AUTO 00000KT 10SM CLR M03/M08 A2986 RMK AO2 SLP112 T10331083
KGUY 010953Z AUTO VRB03KT 10SM CLR M03/M08 A2989 RMK AO2 SLP119 T10331078
KGUY 010853Z AUTO 24009KT 10SM CLR M03/M07 A2990 RMK AO2 SLP122 T10281067 56016
KGUY 010753Z AUTO 24007KT 10SM CLR M01/M06 A2990 RMK AO2 SLP120 T10111061
KGUY 010653Z AUTO 25009KT 10SM CLR 00/M06 A2993 RMK AO2 SLP131 T00001061
KGUY 010553Z AUTO 25013KT 10SM CLR 02/M06 A2995 RMK AO2 SLP138 T00171061 10067 20006 401331083 56017
KGUY 010453Z AUTO 24011KT 10SM CLR 03/M06 A2997 RMK AO2 SLP146 T00281061
KGUY 010353Z AUTO 23012KT 10SM CLR 02/M06 A2998 RMK AO2 SLP156 T00221061
KGUY 010253Z AUTO 22006KT 10SM CLR 02/M06 A3001 RMK AO2 SLP171 T00171061 56013
KGUY 010153Z AUTO 21011KT 10SM CLR 02/M06 A3002 RMK AO2 SLP181 T00221061